createdAt,value
2023-03-11T00:01:01.228Z,7.80
2023-03-11T00:03:30.102Z,9.20
2023-03-11T00:06:00.965Z,9.80
2023-03-11T00:08:30.360Z,6.30
2023-03-11T00:11:00.706Z,6.40
2023-03-11T00:13:30.248Z,8.50
2023-03-11T00:16:00.505Z,8.20
2023-03-11T00:18:31.464Z,9.20
2023-03-11T00:21:01.142Z,7.30
2023-03-11T00:23:30.388Z,8.40
2023-03-11T00:26:01.265Z,6.30
2023-03-11T00:28:31.170Z,8.90
2023-03-11T00:31:01.078Z,7.40
2023-03-11T00:33:30.031Z,8.30
2023-03-11T00:35:58.829Z,6.60
2023-03-11T00:38:27.632Z,7.50
2023-03-11T00:40:56.435Z,7.30
2023-03-11T00:43:25.167Z,7.40
2023-03-11T00:45:53.991Z,10.30
2023-03-11T00:48:23.064Z,7.60
2023-03-11T00:50:51.893Z,6.30
2023-03-11T00:53:20.671Z,6.70
2023-03-11T00:55:49.526Z,8.00
2023-03-11T00:58:18.286Z,7.70
2023-03-11T01:00:47.096Z,6.50
2023-03-11T01:03:15.826Z,9.60
2023-03-11T01:05:44.704Z,6.90
2023-03-11T01:08:13.436Z,6.40
2023-03-11T01:10:42.262Z,8.20
2023-03-11T01:13:11.305Z,6.70
2023-03-11T01:15:40.109Z,5.00
2023-03-11T01:18:08.938Z,5.20
2023-03-11T01:20:38.355Z,5.60
2023-03-11T01:23:08.138Z,7.40
2023-03-11T01:25:36.959Z,6.20
2023-03-11T01:28:06.614Z,6.10
2023-03-11T01:30:36.936Z,6.00
2023-03-11T01:33:06.839Z,5.30
2023-03-11T01:35:35.706Z,5.90
2023-03-11T01:38:04.537Z,6.30
2023-03-11T01:40:36.292Z,7.60
2023-03-11T01:43:06.350Z,5.70
2023-03-11T01:45:42.980Z,6.10
2023-03-11T01:48:11.758Z,5.70
2023-03-11T01:50:43.600Z,5.40
2023-03-11T01:53:17.084Z,5.70
2023-03-11T01:55:46.181Z,4.90
2023-03-11T01:58:17.920Z,7.40
2023-03-11T02:00:47.026Z,5.10
2023-03-11T02:03:25.587Z,8.00
2023-03-11T02:05:55.997Z,5.40
2023-03-11T02:08:24.787Z,6.70
2023-03-11T02:10:53.941Z,6.70
2023-03-11T02:13:22.995Z,5.90
2023-03-11T02:15:51.889Z,7.90
2023-03-11T02:18:22.295Z,6.20
2023-03-11T02:20:57.264Z,4.60
2023-03-11T02:23:30.007Z,6.20
2023-03-11T02:26:01.919Z,7.20
2023-03-11T02:28:31.772Z,7.70
2023-03-11T02:31:00.647Z,6.50
2023-03-11T02:33:32.238Z,6.40
2023-03-11T02:36:01.146Z,7.00
2023-03-11T02:38:30.023Z,6.00
2023-03-11T02:41:00.616Z,6.50
2023-03-11T02:43:35.093Z,5.10
2023-03-11T02:46:04.708Z,7.90
2023-03-11T02:48:34.457Z,3.80
2023-03-11T02:51:03.452Z,5.00
2023-03-11T02:53:35.794Z,8.20
2023-03-11T02:56:04.716Z,6.40
2023-03-11T02:58:33.822Z,7.70
2023-03-11T03:01:03.638Z,8.50
2023-03-11T03:03:32.874Z,7.00
2023-03-11T03:06:01.790Z,6.70
2023-03-11T03:08:30.619Z,5.80
2023-03-11T03:10:59.986Z,9.00
2023-03-11T03:13:29.703Z,5.50
2023-03-11T03:15:59.077Z,5.00
2023-03-11T03:18:27.997Z,4.90
2023-03-11T03:20:56.806Z,6.30
2023-03-11T03:23:25.633Z,6.40
2023-03-11T03:25:54.385Z,7.00
2023-03-11T03:28:23.482Z,6.00
2023-03-11T03:30:52.290Z,7.20
2023-03-11T03:33:21.390Z,4.90
2023-03-11T03:35:50.350Z,5.40
2023-03-11T03:38:19.204Z,8.60
2023-03-11T03:40:48.174Z,5.60
2023-03-11T03:43:17.061Z,6.10
2023-03-11T03:45:45.840Z,5.70
2023-03-11T03:48:14.651Z,6.50
2023-03-11T03:50:43.479Z,6.10
2023-03-11T03:53:12.287Z,8.10
2023-03-11T03:55:41.060Z,5.70
2023-03-11T03:58:09.846Z,6.90
2023-03-11T04:00:39.599Z,6.80
2023-03-11T04:03:08.414Z,5.40
2023-03-11T04:05:37.184Z,9.40
2023-03-11T04:08:06.027Z,6.20
2023-03-11T04:10:34.956Z,7.80
2023-03-11T04:13:03.708Z,8.60
2023-03-11T04:15:32.471Z,6.60
2023-03-11T04:18:01.303Z,6.70
2023-03-11T04:20:30.088Z,5.90
2023-03-11T04:22:58.864Z,5.50
2023-03-11T04:25:27.708Z,5.90
2023-03-11T04:27:56.451Z,6.20
2023-03-11T04:30:25.368Z,6.90
2023-03-11T04:32:54.198Z,5.20
2023-03-11T04:35:23.030Z,7.60
2023-03-11T04:37:51.848Z,7.20
2023-03-11T04:40:20.621Z,7.00
2023-03-11T04:42:49.472Z,11.00
2023-03-11T04:45:18.670Z,6.80
2023-03-11T04:47:48.321Z,5.30
2023-03-11T04:50:17.487Z,6.70
2023-03-11T04:52:46.404Z,6.90
2023-03-11T04:55:15.367Z,7.60
2023-03-11T04:57:44.173Z,6.80
2023-03-11T05:00:13.224Z,7.60
2023-03-11T05:02:42.431Z,8.80
2023-03-11T05:05:11.448Z,5.90
2023-03-11T05:07:40.232Z,7.70
2023-03-11T05:10:09.448Z,7.80
2023-03-11T05:12:38.249Z,7.80
2023-03-11T05:15:07.745Z,9.10
2023-03-11T05:17:36.522Z,6.50
2023-03-11T05:20:07.653Z,6.40
2023-03-11T05:22:37.045Z,5.40
2023-03-11T05:25:06.581Z,5.90
2023-03-11T05:27:35.399Z,5.30
2023-03-11T05:30:04.402Z,5.00
2023-03-11T05:32:33.263Z,5.10
2023-03-11T05:35:02.281Z,8.30
2023-03-11T05:37:32.319Z,7.00
2023-03-11T05:40:01.121Z,8.20
2023-03-11T05:42:29.873Z,7.00
2023-03-11T05:44:58.681Z,8.50
2023-03-11T05:47:27.465Z,4.70
2023-03-11T05:49:56.361Z,5.80
2023-03-11T05:52:25.364Z,6.70
2023-03-11T05:54:54.283Z,4.60
2023-03-11T05:57:23.049Z,5.70
2023-03-11T05:59:51.860Z,5.90
2023-03-11T06:02:21.239Z,6.20
2023-03-11T06:04:50.346Z,4.90
2023-03-11T06:07:19.318Z,5.40
2023-03-11T06:09:50.624Z,8.60
2023-03-11T06:12:19.467Z,5.50
2023-03-11T06:14:48.300Z,4.60
2023-03-11T06:17:17.108Z,5.10
2023-03-11T06:19:45.998Z,4.90
2023-03-11T06:22:14.763Z,6.00
2023-03-11T06:24:43.632Z,6.80
2023-03-11T06:27:12.357Z,4.30
2023-03-11T06:29:41.238Z,4.10
2023-03-11T06:32:10.141Z,5.90
2023-03-11T06:34:39.051Z,4.30
2023-03-11T06:37:07.845Z,4.20
2023-03-11T06:39:37.102Z,4.20
2023-03-11T06:42:09.682Z,4.00
2023-03-11T06:44:38.779Z,2.40
2023-03-11T06:47:07.548Z,5.50
2023-03-11T06:49:40.905Z,4.50
2023-03-11T06:52:10.051Z,2.00
2023-03-11T06:54:39.001Z,1.80
2023-03-11T06:57:08.747Z,4.60
2023-03-11T06:59:37.795Z,2.40
2023-03-11T07:02:06.918Z,1.30
2023-03-11T07:04:35.712Z,1.90
2023-03-11T07:07:04.485Z,1.30
2023-03-11T07:09:33.377Z,1.80
2023-03-11T07:12:02.167Z,1.80
2023-03-11T07:14:31.277Z,1.10
2023-03-11T07:17:00.088Z,1.20
2023-03-11T07:19:28.896Z,1.40
2023-03-11T07:21:57.987Z,1.30
2023-03-11T07:24:27.190Z,1.70
2023-03-11T07:26:56.187Z,2.20
2023-03-11T07:29:24.978Z,2.50
2023-03-11T07:31:53.841Z,2.00
2023-03-11T07:34:22.696Z,3.50
2023-03-11T07:36:51.551Z,2.00
2023-03-11T07:39:20.468Z,1.50
2023-03-11T07:41:49.255Z,2.10
2023-03-11T07:44:18.582Z,3.30
2023-03-11T07:46:47.512Z,4.50
2023-03-11T07:49:16.629Z,1.50
2023-03-11T07:51:45.537Z,2.30
2023-03-11T07:54:14.302Z,2.10
2023-03-11T07:56:43.240Z,3.20
2023-03-11T07:59:12.032Z,2.70
2023-03-11T08:01:41.462Z,2.50
2023-03-11T08:04:14.298Z,2.40
2023-03-11T08:06:45.607Z,4.00
2023-03-11T08:09:14.429Z,2.40
2023-03-11T08:11:43.325Z,1.50
2023-03-11T08:14:12.119Z,4.60
2023-03-11T08:16:41.290Z,1.80
2023-03-11T08:19:13.797Z,2.70
2023-03-11T08:21:42.617Z,4.10
2023-03-11T08:24:14.347Z,2.40
2023-03-11T08:26:43.212Z,2.50
2023-03-11T08:29:12.099Z,1.90
2023-03-11T08:31:41.184Z,2.60
2023-03-11T08:34:10.640Z,1.90
2023-03-11T08:36:39.581Z,2.30
2023-03-11T08:39:08.621Z,1.90
2023-03-11T08:41:37.538Z,1.70
2023-03-11T08:44:06.402Z,2.90
2023-03-11T08:46:36.811Z,3.00
2023-03-11T08:49:06.073Z,1.80
2023-03-11T08:51:35.359Z,1.70
2023-03-11T08:54:04.695Z,2.50
2023-03-11T08:56:33.496Z,2.60
2023-03-11T08:59:02.609Z,2.20
2023-03-11T09:01:31.495Z,2.40
2023-03-11T09:04:00.356Z,3.80
2023-03-11T09:06:30.574Z,2.00
2023-03-11T09:08:59.446Z,2.70
2023-03-11T09:11:28.315Z,2.20
2023-03-11T09:13:57.204Z,3.20
2023-03-11T09:16:26.065Z,5.10
2023-03-11T09:18:55.184Z,4.10
2023-03-11T09:21:24.031Z,3.90
2023-03-11T09:23:52.947Z,3.50
2023-03-11T09:26:21.970Z,6.40
2023-03-11T09:28:50.922Z,4.50
2023-03-11T09:31:19.927Z,6.90
2023-03-11T09:33:50.142Z,3.80
2023-03-11T09:36:20.101Z,6.50
2023-03-11T09:38:49.407Z,3.80
2023-03-11T09:41:18.186Z,3.70
2023-03-11T09:43:59.472Z,3.60
2023-03-11T09:46:46.852Z,3.30
2023-03-11T09:49:16.060Z,2.90
2023-03-11T09:51:52.877Z,3.10
2023-03-11T09:54:22.953Z,5.20
2023-03-11T09:56:52.194Z,3.40
2023-03-11T09:59:30.006Z,3.30
2023-03-11T10:01:59.345Z,2.00
2023-03-11T10:04:32.151Z,3.00
2023-03-11T10:07:02.230Z,3.30
2023-03-11T10:09:34.876Z,2.30
2023-03-11T10:12:06.429Z,3.50
2023-03-11T10:14:44.380Z,1.70
2023-03-11T10:17:36.721Z,2.00
2023-03-11T10:20:09.954Z,3.40
2023-03-11T10:22:41.752Z,4.60
2023-03-11T10:25:18.403Z,2.50
2023-03-11T10:27:49.801Z,2.50
2023-03-11T10:30:29.780Z,3.10
2023-03-11T10:33:02.065Z,4.70
2023-03-11T10:35:39.673Z,5.40
2023-03-11T10:38:16.942Z,8.90
2023-03-11T10:40:47.014Z,6.90
2023-03-11T10:43:25.003Z,9.60
2023-03-11T10:45:54.087Z,8.90
2023-03-11T10:48:24.801Z,9.70
2023-03-11T10:51:04.283Z,10.10
2023-03-11T10:53:33.072Z,10.50
2023-03-11T10:56:01.898Z,10.90
2023-03-11T10:58:31.084Z,9.20
2023-03-11T11:01:05.774Z,9.30
2023-03-11T11:03:34.928Z,7.40
2023-03-11T11:06:05.997Z,4.70
2023-03-11T11:08:35.045Z,4.00
2023-03-11T11:11:04.256Z,3.60
2023-03-11T11:13:37.068Z,4.00
2023-03-11T11:16:21.000Z,3.80
2023-03-11T11:18:51.088Z,2.20
2023-03-11T11:21:32.287Z,3.10
2023-03-11T11:24:20.088Z,2.60
2023-03-11T11:27:07.667Z,3.40
2023-03-11T11:29:36.735Z,2.80
2023-03-11T11:32:19.103Z,5.60
2023-03-11T11:34:55.350Z,3.40
2023-03-11T11:37:26.844Z,3.40
2023-03-11T11:39:58.651Z,4.70
2023-03-11T11:42:30.309Z,6.00
2023-03-11T11:45:10.213Z,6.30
2023-03-11T11:47:41.991Z,4.40
2023-03-11T11:50:16.547Z,4.20
2023-03-11T11:52:49.824Z,5.30
2023-03-11T11:55:37.675Z,6.20
2023-03-11T11:58:09.883Z,8.30
2023-03-11T12:00:41.670Z,3.60
2023-03-11T12:03:25.574Z,4.90
2023-03-11T12:05:58.492Z,3.80
2023-03-11T12:08:34.602Z,4.20
2023-03-11T12:11:03.398Z,3.30
2023-03-11T12:13:50.282Z,4.30
2023-03-11T12:16:38.001Z,2.90
2023-03-11T12:19:10.347Z,3.00
2023-03-11T12:21:42.218Z,3.00
2023-03-11T12:24:11.001Z,3.40
2023-03-11T12:26:42.569Z,4.50
2023-03-11T12:29:19.875Z,4.10
2023-03-11T12:31:49.056Z,7.00
2023-03-11T12:34:20.782Z,6.30
2023-03-11T12:36:50.224Z,5.90
2023-03-11T12:39:22.113Z,6.50
2023-03-11T12:42:20.338Z,5.20
2023-03-11T12:44:49.753Z,4.50
2023-03-11T12:47:22.887Z,6.60
2023-03-11T12:49:55.035Z,4.40
2023-03-11T12:52:26.480Z,4.30
2023-03-11T12:54:55.339Z,4.20
2023-03-11T12:57:36.378Z,3.30
2023-03-11T13:00:12.683Z,4.00
2023-03-11T13:03:08.090Z,5.90
2023-03-11T13:05:36.908Z,5.10
2023-03-11T13:08:13.754Z,4.50
2023-03-11T13:10:44.284Z,5.60
2023-03-11T13:13:25.282Z,5.50
2023-03-11T13:15:54.410Z,4.10
2023-03-11T13:18:30.614Z,5.90
2023-03-11T13:21:00.238Z,5.20
2023-03-11T13:23:36.464Z,6.00
2023-03-11T13:26:43.998Z,12.70
2023-03-11T13:29:33.016Z,5.00
2023-03-11T13:32:20.168Z,4.40
2023-03-11T13:35:08.023Z,2.60
2023-03-11T13:37:36.895Z,2.50
2023-03-11T13:40:05.661Z,2.20
2023-03-11T13:42:37.640Z,3.40
2023-03-11T13:45:07.619Z,5.80
2023-03-11T13:47:37.248Z,4.00
2023-03-11T13:50:09.379Z,3.90
2023-03-11T13:52:42.124Z,5.10
2023-03-11T13:55:30.007Z,4.80
2023-03-11T13:57:58.902Z,4.40
2023-03-11T14:00:30.149Z,4.00
2023-03-11T14:03:01.905Z,3.50
2023-03-11T14:05:32.162Z,5.40
2023-03-11T14:08:19.236Z,8.60
2023-03-11T14:10:55.090Z,4.50
2023-03-11T14:13:25.327Z,6.30
2023-03-11T14:15:58.135Z,6.30
2023-03-11T14:18:31.678Z,6.10
2023-03-11T14:21:01.114Z,7.80
2023-03-11T14:23:33.082Z,6.70
2023-03-11T14:26:07.687Z,5.90
2023-03-11T14:28:38.807Z,6.40
2023-03-11T14:31:07.820Z,4.50
2023-03-11T14:33:36.652Z,6.30
2023-03-11T14:36:11.632Z,5.30
2023-03-11T14:38:43.207Z,6.00
2023-03-11T14:41:13.700Z,5.60
2023-03-11T14:43:44.463Z,6.90
2023-03-11T14:46:18.478Z,6.40
2023-03-11T14:48:47.549Z,6.60
2023-03-11T14:51:24.354Z,5.30
2023-03-11T14:54:08.497Z,7.10
2023-03-11T14:56:39.569Z,9.40
2023-03-11T14:59:15.712Z,4.90
2023-03-11T15:01:46.695Z,5.50
2023-03-11T15:04:26.932Z,10.20
2023-03-11T15:06:56.112Z,4.70
2023-03-11T15:09:25.215Z,4.90
2023-03-11T15:11:55.581Z,5.30
2023-03-11T15:14:28.202Z,6.80
2023-03-11T15:17:31.001Z,3.90
2023-03-11T15:20:02.633Z,5.00
2023-03-11T15:22:37.984Z,5.70
2023-03-11T15:25:17.771Z,5.00
2023-03-11T15:27:46.577Z,3.80
2023-03-11T15:30:23.429Z,5.70
2023-03-11T15:32:52.533Z,5.80
2023-03-11T15:35:25.554Z,6.20
2023-03-11T15:40:42.362Z,3.90
2023-03-11T15:43:16.655Z,6.60
2023-03-11T15:45:45.522Z,4.90
2023-03-11T15:48:14.460Z,4.00
2023-03-11T15:50:53.614Z,6.70
2023-03-11T15:53:23.895Z,5.90
2023-03-11T15:55:53.645Z,6.10
2023-03-11T15:58:22.731Z,4.30
2023-03-11T16:00:52.545Z,4.60
2023-03-11T16:03:21.370Z,6.20
2023-03-11T16:05:50.439Z,3.30
2023-03-11T16:08:19.262Z,3.90
2023-03-11T16:10:48.083Z,8.10
2023-03-11T16:13:17.368Z,3.90
2023-03-11T16:15:47.317Z,3.30
2023-03-11T16:18:16.527Z,3.50
2023-03-11T16:20:49.990Z,5.90
2023-03-11T16:23:23.934Z,4.90
2023-03-11T16:25:55.964Z,6.80
2023-03-11T16:28:24.795Z,6.40
2023-03-11T16:30:53.971Z,5.20
2023-03-11T16:33:22.980Z,3.80
2023-03-11T16:35:51.859Z,3.80
2023-03-11T16:38:23.483Z,7.10
2023-03-11T16:40:56.913Z,6.60
2023-03-11T16:43:26.189Z,5.20
2023-03-11T16:45:55.130Z,3.10
2023-03-11T16:48:24.206Z,3.80
2023-03-11T16:50:53.025Z,3.10
2023-03-11T16:53:22.101Z,5.00
2023-03-11T16:55:50.908Z,5.50
2023-03-11T16:58:19.787Z,5.00
2023-03-11T17:00:48.813Z,5.10
2023-03-11T17:03:21.569Z,4.80
2023-03-11T17:05:51.058Z,4.40
2023-03-11T17:08:19.807Z,3.10
2023-03-11T17:10:51.275Z,5.30
2023-03-11T17:13:20.076Z,3.40
2023-03-11T17:15:59.371Z,3.20
2023-03-11T17:18:28.286Z,3.10
2023-03-11T17:20:57.209Z,3.30
2023-03-11T17:23:26.075Z,3.70
2023-03-11T17:25:54.902Z,4.60
2023-03-11T17:28:24.040Z,5.40
2023-03-11T17:30:52.925Z,5.90
2023-03-11T17:33:21.940Z,3.20
2023-03-11T17:35:59.500Z,3.30
2023-03-11T17:38:29.571Z,3.30
2023-03-11T17:40:58.470Z,3.40
2023-03-11T17:43:27.343Z,5.50
2023-03-11T17:45:58.688Z,4.20
2023-03-11T17:48:28.194Z,4.40
2023-03-11T17:50:57.331Z,3.70
2023-03-11T17:53:26.178Z,3.60
2023-03-11T17:55:55.057Z,4.30
2023-03-11T17:58:23.953Z,2.90
2023-03-11T18:00:52.782Z,4.90
2023-03-11T18:03:21.703Z,4.80
2023-03-11T18:05:54.323Z,4.20
2023-03-11T18:08:23.206Z,4.00
2023-03-11T18:10:53.127Z,4.50
2023-03-11T18:13:21.911Z,3.20
2023-03-11T18:15:57.802Z,2.20
2023-03-11T18:18:26.862Z,3.90
2023-03-11T18:20:55.744Z,3.00
2023-03-11T18:23:24.640Z,3.70
2023-03-11T18:25:53.736Z,3.50
2023-03-11T18:28:22.561Z,4.00
2023-03-11T18:30:51.433Z,5.10
2023-03-11T18:33:21.027Z,4.40
2023-03-11T18:35:49.952Z,6.20
2023-03-11T18:38:18.808Z,4.40
2023-03-11T18:40:47.594Z,4.10
2023-03-11T18:43:16.466Z,4.50
2023-03-11T18:45:45.347Z,2.80
2023-03-11T18:48:14.263Z,3.30
2023-03-11T18:50:43.041Z,6.20
2023-03-11T18:53:11.929Z,4.00
2023-03-11T18:55:40.738Z,3.10
2023-03-11T18:58:10.759Z,3.90
2023-03-11T19:00:39.566Z,4.50
2023-03-11T19:03:10.296Z,4.70
2023-03-11T19:05:39.214Z,4.20
2023-03-11T19:08:08.047Z,3.80
2023-03-11T19:10:38.715Z,2.80
2023-03-11T19:13:07.853Z,3.30
2023-03-11T19:15:42.944Z,2.50
2023-03-11T19:18:12.693Z,2.80
2023-03-11T19:20:41.996Z,3.30
2023-03-11T19:23:11.773Z,4.10
2023-03-11T19:25:45.794Z,2.20
2023-03-11T19:28:23.367Z,3.30
2023-03-11T19:30:56.521Z,3.20
2023-03-11T19:33:26.430Z,3.40
2023-03-11T19:36:00.255Z,3.00
2023-03-11T19:38:30.134Z,2.50
2023-03-11T19:41:03.524Z,3.80
2023-03-11T19:43:38.648Z,4.10
2023-03-11T19:46:08.908Z,2.90
2023-03-11T19:48:38.417Z,3.90
2023-03-11T19:51:07.389Z,4.00
2023-03-11T19:53:36.743Z,2.70
2023-03-11T19:56:06.838Z,3.80
2023-03-11T19:58:36.374Z,4.10
2023-03-11T20:01:05.436Z,5.00
2023-03-11T20:03:34.493Z,3.90
2023-03-11T20:06:04.562Z,4.90
2023-03-11T20:08:36.892Z,5.30
2023-03-11T20:11:06.109Z,3.80
2023-03-11T20:13:36.265Z,2.90
2023-03-11T20:16:06.387Z,2.40
2023-03-11T20:18:35.462Z,2.20
2023-03-11T20:21:05.457Z,3.30
2023-03-11T20:23:34.626Z,2.70
2023-03-11T20:26:07.231Z,3.20
2023-03-11T20:28:36.463Z,5.90
2023-03-11T20:31:09.874Z,3.40
2023-03-11T20:33:38.761Z,2.40
2023-03-11T20:36:09.471Z,4.40
2023-03-11T20:38:38.603Z,3.90
2023-03-11T20:41:09.827Z,3.30
2023-03-11T20:43:39.175Z,4.10
2023-03-11T20:46:09.163Z,4.70
2023-03-11T20:48:38.725Z,2.20
2023-03-11T20:51:10.412Z,2.80
2023-03-11T20:53:39.803Z,8.40
2023-03-11T20:56:10.855Z,6.60
2023-03-11T20:58:39.807Z,8.00
2023-03-11T21:01:12.138Z,7.50
2023-03-11T21:03:41.165Z,7.30
2023-03-11T21:06:29.925Z,18.30
2023-03-11T21:09:00.060Z,6.10
2023-03-11T21:11:29.006Z,3.30
2023-03-11T21:13:59.025Z,6.50
2023-03-11T21:16:28.419Z,3.10
2023-03-11T21:18:57.376Z,5.10
2023-03-11T21:21:26.456Z,5.00
2023-03-11T21:23:55.385Z,3.10
2023-03-11T21:26:24.489Z,5.20
2023-03-11T21:28:53.326Z,5.80
2023-03-11T21:31:24.169Z,4.10
2023-03-11T21:33:55.184Z,4.20
2023-03-11T21:36:24.376Z,4.30
2023-03-11T21:38:53.315Z,4.60
2023-03-11T21:41:26.263Z,5.70
2023-03-11T21:46:26.477Z,5.00
2023-03-11T21:48:55.769Z,5.40
2023-03-11T21:51:25.483Z,4.50
2023-03-11T21:53:54.489Z,6.70
2023-03-11T21:56:23.792Z,3.70
2023-03-11T21:58:53.871Z,6.90
2023-03-11T22:01:22.920Z,5.90
2023-03-11T22:03:51.972Z,5.80
2023-03-11T22:06:20.965Z,4.30
2023-03-11T22:08:49.863Z,5.10
2023-03-11T22:11:19.500Z,5.20
2023-03-11T22:13:51.062Z,3.70
2023-03-11T22:16:21.084Z,3.90
2023-03-11T22:18:50.389Z,5.10
2023-03-11T22:21:20.805Z,5.30
2023-03-11T22:23:49.838Z,4.20
2023-03-11T22:26:18.804Z,7.40
2023-03-11T22:28:47.656Z,5.10
2023-03-11T22:31:18.797Z,4.10
2023-03-11T22:33:47.850Z,3.90
2023-03-11T22:36:17.027Z,5.50
2023-03-11T22:38:46.089Z,5.50
2023-03-11T22:41:19.444Z,4.90
2023-03-11T22:43:48.479Z,8.10
2023-03-11T22:46:17.492Z,6.10
2023-03-11T22:48:46.368Z,4.40
2023-03-11T22:51:15.237Z,4.10
2023-03-11T22:53:44.104Z,3.90
2023-03-11T22:56:14.774Z,4.40
2023-03-11T22:58:43.891Z,6.90
2023-03-11T23:01:12.998Z,7.80
2023-03-11T23:03:42.931Z,3.80
2023-03-11T23:06:16.229Z,2.80
2023-03-11T23:08:45.425Z,4.70
2023-03-11T23:11:15.305Z,4.90
2023-03-11T23:13:44.645Z,4.90
2023-03-11T23:16:17.980Z,4.60
2023-03-11T23:18:47.277Z,3.90
2023-03-11T23:21:18.026Z,4.80
2023-03-11T23:23:47.192Z,3.80
2023-03-11T23:26:16.974Z,3.40
2023-03-11T23:28:46.211Z,4.90
2023-03-11T23:31:15.802Z,5.00
2023-03-11T23:33:44.801Z,6.30
2023-03-11T23:36:15.550Z,4.90
2023-03-11T23:38:44.823Z,5.20
2023-03-11T23:41:16.543Z,5.40
2023-03-11T23:43:46.413Z,6.20
2023-03-11T23:46:17.003Z,3.90
2023-03-11T23:48:45.922Z,5.80
2023-03-11T23:51:14.820Z,3.80
2023-03-11T23:53:43.634Z,5.40
2023-03-11T23:56:14.279Z,5.80
2023-03-11T23:58:43.596Z,3.50
